createdAt,value
2023-03-21T00:00:51.805Z,35.37
2023-03-21T00:01:57.868Z,35.37
2023-03-21T00:02:52.043Z,35.39
2023-03-21T00:03:52.151Z,35.38
2023-03-21T00:04:54.929Z,35.38
2023-03-21T00:05:52.313Z,35.39
2023-03-21T00:06:52.308Z,35.38
2023-03-21T00:07:52.375Z,35.38
2023-03-21T00:08:52.464Z,35.39
2023-03-21T00:09:55.197Z,35.39
2023-03-21T00:10:52.623Z,35.41
2023-03-21T00:11:52.694Z,35.41
2023-03-21T00:12:52.812Z,35.39
2023-03-21T00:13:52.869Z,35.39
2023-03-21T00:14:52.991Z,35.41
2023-03-21T00:16:11.265Z,35.42
2023-03-21T00:16:53.637Z,35.41
2023-03-21T00:17:53.211Z,35.42
2023-03-21T00:18:53.324Z,35.42
2023-03-21T00:19:53.375Z,35.42
2023-03-21T00:21:00.636Z,35.41
2023-03-21T00:22:07.529Z,35.44
2023-03-21T00:22:53.685Z,35.45
2023-03-21T00:23:53.696Z,35.43
2023-03-21T00:24:53.786Z,35.43
2023-03-21T00:25:53.876Z,35.42
2023-03-21T00:26:54.069Z,35.42
2023-03-21T00:28:07.441Z,35.44
2023-03-21T00:28:54.176Z,35.44
2023-03-21T00:29:54.188Z,35.44
2023-03-21T00:30:54.268Z,35.46
2023-03-21T00:31:54.348Z,35.45
2023-03-21T00:33:05.963Z,35.43
2023-03-21T00:33:54.571Z,35.48
2023-03-21T00:35:03.878Z,35.47
2023-03-21T00:36:02.496Z,35.47
2023-03-21T00:36:54.828Z,35.49
2023-03-21T00:37:54.834Z,35.48
2023-03-21T00:38:54.939Z,35.46
2023-03-21T00:39:55.076Z,35.46
2023-03-21T00:40:55.681Z,35.46
2023-03-21T00:41:55.164Z,35.46
2023-03-21T00:42:55.230Z,35.45
2023-03-21T00:43:55.349Z,35.45
2023-03-21T00:44:55.419Z,35.47
2023-03-21T00:45:55.464Z,35.46
2023-03-21T00:47:06.536Z,35.46
2023-03-21T00:47:55.812Z,35.48
2023-03-21T00:48:55.739Z,35.48
2023-03-21T00:49:55.838Z,35.47
2023-03-21T00:50:55.927Z,35.47
2023-03-21T00:51:59.515Z,35.49
2023-03-21T00:52:56.083Z,35.50
2023-03-21T00:53:56.203Z,35.48
2023-03-21T00:54:56.246Z,35.47
2023-03-21T00:55:56.349Z,35.48
2023-03-21T00:56:56.412Z,35.47
2023-03-21T00:58:02.060Z,35.47
2023-03-21T00:58:56.576Z,35.50
2023-03-21T00:59:56.654Z,35.50
2023-03-21T01:00:56.793Z,35.50
2023-03-21T01:01:56.874Z,35.50
2023-03-21T01:03:14.222Z,35.51
2023-03-21T01:05:11.728Z,35.51
2023-03-21T01:06:12.836Z,35.73
2023-03-21T01:07:12.885Z,35.67
2023-03-21T01:08:25.062Z,35.62
2023-03-21T01:09:13.075Z,35.60
2023-03-21T01:10:13.139Z,35.59
2023-03-21T01:11:13.215Z,35.57
2023-03-21T01:12:13.328Z,35.56
2023-03-21T01:13:13.391Z,35.56
2023-03-21T01:14:28.610Z,35.55
2023-03-21T01:15:13.586Z,35.58
2023-03-21T01:16:13.708Z,35.57
2023-03-21T01:17:13.793Z,35.55
2023-03-21T01:18:13.865Z,35.57
2023-03-21T01:19:23.928Z,35.58
2023-03-21T01:20:14.007Z,35.60
2023-03-21T01:21:14.095Z,35.58
2023-03-21T01:22:14.170Z,35.59
2023-03-21T01:23:14.279Z,35.58
2023-03-21T01:24:14.325Z,35.57
2023-03-21T01:25:22.382Z,35.58
2023-03-21T01:26:14.525Z,35.60
2023-03-21T01:27:14.591Z,35.60
2023-03-21T01:28:14.658Z,35.60
2023-03-21T01:29:14.725Z,35.57
2023-03-21T01:30:21.598Z,35.58
2023-03-21T01:31:14.975Z,35.61
2023-03-21T01:32:15.013Z,35.60
2023-03-21T01:33:15.099Z,35.60
2023-03-21T01:34:15.197Z,35.61
2023-03-21T01:35:15.223Z,35.61
2023-03-21T01:36:23.488Z,35.62
2023-03-21T01:37:15.378Z,35.66
2023-03-21T01:38:15.448Z,35.65
2023-03-21T01:39:15.557Z,35.66
2023-03-21T01:40:15.611Z,35.66
2023-03-21T01:41:19.925Z,35.66
2023-03-21T01:42:15.836Z,35.68
2023-03-21T01:43:15.861Z,35.69
2023-03-21T01:44:15.966Z,35.68
2023-03-21T01:45:16.072Z,35.68
2023-03-21T01:46:16.221Z,35.67
2023-03-21T01:47:16.190Z,35.67
2023-03-21T01:48:16.292Z,35.66
2023-03-21T01:49:16.356Z,35.68
2023-03-21T01:50:16.458Z,35.68
2023-03-21T01:51:16.538Z,35.68
2023-03-21T01:52:26.423Z,35.69
2023-03-21T01:53:16.712Z,35.72
2023-03-21T01:54:16.788Z,35.72
2023-03-21T01:55:16.879Z,35.72
2023-03-21T01:56:16.958Z,35.72
2023-03-21T01:57:17.057Z,35.71
2023-03-21T01:58:17.094Z,35.72
2023-03-21T01:59:17.167Z,35.72
2023-03-21T02:00:17.267Z,35.72
2023-03-21T02:01:17.411Z,35.71
2023-03-21T02:02:17.401Z,35.73
2023-03-21T02:03:29.570Z,35.73
2023-03-21T02:04:17.575Z,35.74
2023-03-21T02:05:17.620Z,35.74
2023-03-21T02:06:17.712Z,35.75
2023-03-21T02:07:23.753Z,35.75
2023-03-21T02:08:17.848Z,35.77
2023-03-21T02:09:17.933Z,35.76
2023-03-21T02:10:17.990Z,35.77
2023-03-21T02:11:18.057Z,35.77
2023-03-21T02:12:18.137Z,35.77
2023-03-21T02:13:18.219Z,35.76
2023-03-21T02:14:28.324Z,35.77
2023-03-21T02:15:18.384Z,35.77
2023-03-21T02:16:18.487Z,35.78
2023-03-21T02:17:18.525Z,35.78
2023-03-21T02:18:18.613Z,35.79
2023-03-21T02:19:25.955Z,35.79
2023-03-21T02:20:18.852Z,35.82
2023-03-21T02:21:18.862Z,35.80
2023-03-21T02:22:18.936Z,35.78
2023-03-21T02:23:19.025Z,35.79
2023-03-21T02:24:19.086Z,35.78
2023-03-21T02:25:22.080Z,35.78
2023-03-21T02:26:19.258Z,35.80
2023-03-21T02:27:19.347Z,35.79
2023-03-21T02:28:19.430Z,35.80
2023-03-21T02:29:19.495Z,35.80
2023-03-21T02:30:28.150Z,35.82
2023-03-21T02:31:19.706Z,35.80
2023-03-21T02:32:31.429Z,35.81
2023-03-21T02:33:19.796Z,35.84
2023-03-21T02:34:19.885Z,35.81
2023-03-21T02:35:19.961Z,35.81
2023-03-21T02:36:20.047Z,35.81
2023-03-21T02:37:23.523Z,35.81
2023-03-21T02:39:36.196Z,35.81
2023-03-21T02:40:36.466Z,36.03
2023-03-21T02:41:40.237Z,35.96
2023-03-21T02:42:36.259Z,35.92
2023-03-21T02:43:36.332Z,35.90
2023-03-21T02:44:36.432Z,35.87
2023-03-21T02:45:36.501Z,35.87
2023-03-21T02:46:45.451Z,35.88
2023-03-21T02:47:36.665Z,35.88
2023-03-21T02:48:49.761Z,35.86
2023-03-21T02:49:36.782Z,35.88
2023-03-21T02:50:37.084Z,35.87
2023-03-21T02:51:36.942Z,35.86
2023-03-21T02:52:39.428Z,35.86
2023-03-21T02:53:37.129Z,35.85
2023-03-21T02:54:47.481Z,35.86
2023-03-21T02:55:37.316Z,35.87
2023-03-21T02:56:37.384Z,35.85
2023-03-21T02:57:43.105Z,35.86
2023-03-21T02:58:37.558Z,35.88
2023-03-21T02:59:44.532Z,35.85
2023-03-21T03:00:37.937Z,35.86
2023-03-21T03:01:37.844Z,35.86
2023-03-21T03:02:37.868Z,35.85
2023-03-21T03:03:37.941Z,35.86
2023-03-21T03:04:38.110Z,35.85
2023-03-21T03:05:38.111Z,35.86
2023-03-21T03:06:38.198Z,35.87
2023-03-21T03:07:38.270Z,35.86
2023-03-21T03:08:45.287Z,35.86
2023-03-21T03:09:38.439Z,35.87
2023-03-21T03:10:44.593Z,35.85
2023-03-21T03:11:38.593Z,35.89
2023-03-21T03:12:38.682Z,35.89
2023-03-21T03:13:38.768Z,35.88
2023-03-21T03:15:00.305Z,35.89
2023-03-21T03:15:38.969Z,35.91
2023-03-21T03:16:39.133Z,35.89
2023-03-21T03:17:39.111Z,35.88
2023-03-21T03:18:39.198Z,35.88
2023-03-21T03:19:49.572Z,35.88
2023-03-21T03:20:39.787Z,35.90
2023-03-21T03:21:39.506Z,35.89
2023-03-21T03:22:39.548Z,35.88
2023-03-21T03:23:39.645Z,35.89
2023-03-21T03:24:39.725Z,35.90
2023-03-21T03:25:43.257Z,35.88
2023-03-21T03:26:39.918Z,35.88
2023-03-21T03:27:40.001Z,35.89
2023-03-21T03:28:40.056Z,35.89
2023-03-21T03:29:40.112Z,35.88
2023-03-21T03:30:45.019Z,35.89
2023-03-21T03:31:40.294Z,35.90
2023-03-21T03:32:40.345Z,35.89
2023-03-21T03:33:40.443Z,35.88
2023-03-21T03:34:40.487Z,35.88
2023-03-21T03:35:40.570Z,35.89
2023-03-21T03:36:40.665Z,35.88
2023-03-21T03:37:40.714Z,35.88
2023-03-21T03:38:40.810Z,35.88
2023-03-21T03:39:40.865Z,35.88
2023-03-21T03:40:41.426Z,35.89
2023-03-21T03:42:41.146Z,35.95
2023-03-21T03:43:41.217Z,35.93
2023-03-21T03:44:41.318Z,35.93
2023-03-21T03:45:41.349Z,35.92
2023-03-21T03:46:41.472Z,35.90
2023-03-21T03:47:50.821Z,35.90
2023-03-21T03:48:41.656Z,35.92
2023-03-21T03:49:41.703Z,35.92
2023-03-21T03:50:41.765Z,35.90
2023-03-21T03:51:41.857Z,35.92
2023-03-21T03:52:53.519Z,35.90
2023-03-21T03:53:42.019Z,35.93
2023-03-21T03:54:42.092Z,35.91
2023-03-21T03:55:42.203Z,35.91
2023-03-21T03:56:42.270Z,35.90
2023-03-21T03:57:42.365Z,35.90
2023-03-21T03:58:45.922Z,35.90
2023-03-21T03:59:42.530Z,35.95
2023-03-21T04:00:42.646Z,35.92
2023-03-21T04:01:42.720Z,35.93
2023-03-21T04:02:42.815Z,35.91
2023-03-21T04:03:49.713Z,35.90
2023-03-21T04:04:43.008Z,35.92
2023-03-21T04:05:43.020Z,35.92
2023-03-21T04:06:43.134Z,35.92
2023-03-21T04:07:43.192Z,35.92
2023-03-21T04:08:43.286Z,35.92
2023-03-21T04:09:45.104Z,35.92
2023-03-21T04:10:43.420Z,35.92
2023-03-21T04:11:43.535Z,35.92
2023-03-21T04:12:50.073Z,35.90
2023-03-21T04:13:43.663Z,35.93
2023-03-21T04:14:46.089Z,35.93
2023-03-21T04:15:43.854Z,35.93
2023-03-21T04:16:43.954Z,35.96
2023-03-21T04:17:44.043Z,35.93
2023-03-21T04:18:44.130Z,35.94
2023-03-21T04:19:44.204Z,35.94
2023-03-21T04:20:44.832Z,35.93
2023-03-21T04:21:44.389Z,35.93
2023-03-21T04:22:44.509Z,35.94
2023-03-21T04:23:44.561Z,35.93
2023-03-21T04:24:44.621Z,35.92
2023-03-21T04:25:55.972Z,35.94
2023-03-21T04:26:44.793Z,35.95
2023-03-21T04:27:44.880Z,35.95
2023-03-21T04:28:44.998Z,35.96
2023-03-21T04:29:45.042Z,35.95
2023-03-21T04:30:58.768Z,35.94
2023-03-21T04:31:45.240Z,35.97
2023-03-21T04:32:45.261Z,35.95
2023-03-21T04:33:45.355Z,35.95
2023-03-21T04:34:45.461Z,35.94
2023-03-21T04:35:45.585Z,35.95
2023-03-21T04:36:45.632Z,35.95
2023-03-21T04:37:45.716Z,35.94
2023-03-21T04:38:45.802Z,35.95
2023-03-21T04:39:45.911Z,35.95
2023-03-21T04:40:45.987Z,35.94
2023-03-21T04:41:46.077Z,35.95
2023-03-21T04:42:46.143Z,35.95
2023-03-21T04:43:52.622Z,35.96
2023-03-21T04:44:46.299Z,35.99
2023-03-21T04:45:46.419Z,35.98
2023-03-21T04:46:46.443Z,35.95
2023-03-21T04:47:46.570Z,35.97
2023-03-21T04:48:46.592Z,35.98
2023-03-21T04:49:46.670Z,35.98
2023-03-21T04:50:46.769Z,35.98
2023-03-21T04:51:46.812Z,35.99
2023-03-21T04:52:46.895Z,35.97
2023-03-21T04:53:46.983Z,35.97
2023-03-21T04:54:47.053Z,35.96
2023-03-21T04:55:47.162Z,35.97
2023-03-21T04:56:47.262Z,35.98
2023-03-21T04:57:47.312Z,35.99
2023-03-21T04:58:47.400Z,35.97
2023-03-21T04:59:47.487Z,35.97
2023-03-21T05:00:47.604Z,35.98
2023-03-21T05:01:47.678Z,35.96
2023-03-21T05:02:47.738Z,35.97
2023-03-21T05:03:47.882Z,35.97
2023-03-21T05:04:47.882Z,35.97
2023-03-21T05:05:47.962Z,35.96
2023-03-21T05:06:48.048Z,35.96
2023-03-21T05:07:48.132Z,35.97
2023-03-21T05:08:48.217Z,35.96
2023-03-21T05:09:48.279Z,35.96
2023-03-21T05:10:48.363Z,35.98
2023-03-21T05:11:48.470Z,35.92
2023-03-21T05:12:48.561Z,35.83
2023-03-21T05:13:48.651Z,35.70
2023-03-21T05:14:54.717Z,35.55
2023-03-21T05:15:48.807Z,35.48
2023-03-21T05:16:49.147Z,35.42
2023-03-21T05:17:49.134Z,35.37
2023-03-21T05:18:49.038Z,35.33
2023-03-21T05:19:49.087Z,35.30
2023-03-21T05:20:49.154Z,35.27
2023-03-21T05:21:49.243Z,35.23
2023-03-21T05:22:49.334Z,35.21
2023-03-21T05:23:49.422Z,35.23
2023-03-21T05:24:49.552Z,35.17
2023-03-21T05:25:49.616Z,35.19
2023-03-21T05:26:49.686Z,35.15
2023-03-21T05:27:49.804Z,35.15
2023-03-21T05:28:49.856Z,35.15
2023-03-21T05:29:49.957Z,35.13
2023-03-21T05:30:50.058Z,35.15
2023-03-21T05:31:50.103Z,35.11
2023-03-21T05:32:50.175Z,35.10
2023-03-21T05:33:50.268Z,35.09
2023-03-21T05:34:50.344Z,35.06
2023-03-21T05:35:50.467Z,35.08
2023-03-21T05:36:50.521Z,35.07
2023-03-21T05:37:50.594Z,35.06
2023-03-21T05:38:50.789Z,35.03
2023-03-21T05:39:50.769Z,35.04
2023-03-21T05:40:50.837Z,35.03
2023-03-21T05:41:50.914Z,35.00
2023-03-21T05:42:51.011Z,35.00
2023-03-21T05:43:51.066Z,34.99
2023-03-21T05:44:51.175Z,35.00
2023-03-21T05:45:57.247Z,34.99
2023-03-21T05:46:51.344Z,35.02
2023-03-21T05:47:51.450Z,35.00
2023-03-21T05:48:51.526Z,34.98
2023-03-21T05:49:51.584Z,34.98
2023-03-21T05:50:51.692Z,34.98
2023-03-21T05:51:51.768Z,34.95
2023-03-21T05:52:51.861Z,34.94
2023-03-21T05:53:51.956Z,34.96
2023-03-21T05:54:52.054Z,34.94
2023-03-21T05:55:52.143Z,34.94
2023-03-21T05:56:52.224Z,34.93
2023-03-21T05:57:52.302Z,34.93
2023-03-21T05:58:52.387Z,34.91
2023-03-21T05:59:52.517Z,34.90
2023-03-21T06:00:52.557Z,34.90
2023-03-21T06:01:52.675Z,34.89
2023-03-21T06:02:52.809Z,34.88
2023-03-21T06:03:52.854Z,34.90
2023-03-21T06:04:52.906Z,34.89
2023-03-21T06:05:52.996Z,34.88
2023-03-21T06:06:53.047Z,34.88
2023-03-21T06:07:53.151Z,34.86
2023-03-21T06:08:53.230Z,34.88
2023-03-21T06:09:53.333Z,34.85
2023-03-21T06:10:53.413Z,34.85
2023-03-21T06:11:53.489Z,34.84
2023-03-21T06:12:53.572Z,34.84
2023-03-21T06:13:53.666Z,34.82
2023-03-21T06:14:53.763Z,34.82
2023-03-21T06:15:53.981Z,34.78
2023-03-21T06:17:00.184Z,34.78
2023-03-21T06:17:54.038Z,34.81
2023-03-21T06:18:54.098Z,34.78
2023-03-21T06:19:54.200Z,34.77
2023-03-21T06:20:54.271Z,34.76
2023-03-21T06:21:54.368Z,34.76
2023-03-21T06:22:54.720Z,34.75
2023-03-21T06:23:54.525Z,34.73
2023-03-21T06:24:54.612Z,34.72
2023-03-21T06:25:54.702Z,34.70
2023-03-21T06:26:54.785Z,34.70
2023-03-21T06:27:54.870Z,34.70
2023-03-21T06:28:54.981Z,34.68
2023-03-21T06:29:55.039Z,34.66
2023-03-21T06:30:55.211Z,34.65
2023-03-21T06:31:55.165Z,34.66
2023-03-21T06:32:55.241Z,34.66
2023-03-21T06:33:55.334Z,34.65
2023-03-21T06:34:55.430Z,34.65
2023-03-21T06:35:55.511Z,34.64
2023-03-21T06:36:55.549Z,34.93
2023-03-21T06:37:55.650Z,34.83
2023-03-21T06:38:55.754Z,34.75
2023-03-21T06:39:55.852Z,34.73
2023-03-21T06:40:55.898Z,34.73
2023-03-21T06:41:55.976Z,34.70
2023-03-21T06:42:56.047Z,34.72
2023-03-21T06:43:56.126Z,34.70
2023-03-21T06:44:56.200Z,34.69
2023-03-21T06:45:56.315Z,34.69
2023-03-21T06:46:56.364Z,34.70
2023-03-21T06:48:02.479Z,34.69
2023-03-21T06:48:56.558Z,34.71
2023-03-21T06:49:56.599Z,34.69
2023-03-21T06:50:56.716Z,34.69
2023-03-21T06:51:56.766Z,34.68
2023-03-21T06:52:56.939Z,34.67
2023-03-21T06:53:56.961Z,34.67
2023-03-21T06:54:57.055Z,34.66
2023-03-21T06:55:57.131Z,34.65
2023-03-21T06:56:57.220Z,34.64
2023-03-21T06:57:57.284Z,34.65
2023-03-21T06:58:57.375Z,34.63
2023-03-21T06:59:57.436Z,34.63
2023-03-21T07:00:57.544Z,34.63
2023-03-21T07:01:57.642Z,34.62
2023-03-21T07:02:57.756Z,34.60
2023-03-21T07:03:57.809Z,34.62
2023-03-21T07:04:57.851Z,34.61
2023-03-21T07:05:57.935Z,34.60
2023-03-21T07:06:58.024Z,34.59
2023-03-21T07:07:58.142Z,34.58
2023-03-21T07:08:58.211Z,34.56
2023-03-21T07:09:58.266Z,34.58
2023-03-21T07:10:58.326Z,34.57
2023-03-21T07:11:58.416Z,34.56
2023-03-21T07:12:58.505Z,34.53
2023-03-21T07:13:58.549Z,34.54
2023-03-21T07:14:58.647Z,34.55
2023-03-21T07:15:58.699Z,34.52
2023-03-21T07:16:58.788Z,34.51
2023-03-21T07:17:58.893Z,34.51
2023-03-21T07:19:05.236Z,34.49
2023-03-21T07:19:59.029Z,34.51
2023-03-21T07:20:59.117Z,34.50
2023-03-21T07:21:59.200Z,34.51
2023-03-21T07:22:59.297Z,34.48
2023-03-21T07:23:59.384Z,34.48
2023-03-21T07:25:05.120Z,34.46
2023-03-21T07:25:59.572Z,34.48
2023-03-21T07:26:59.583Z,34.48
2023-03-21T07:27:59.665Z,34.47
2023-03-21T07:28:59.750Z,34.44
2023-03-21T07:29:59.834Z,34.46
2023-03-21T07:30:59.943Z,34.42
2023-03-21T07:32:00.099Z,34.42
2023-03-21T07:33:00.112Z,34.45
2023-03-21T07:34:00.169Z,34.41
2023-03-21T07:35:01.793Z,34.41
2023-03-21T07:36:00.388Z,34.41
2023-03-21T07:37:00.454Z,34.40
2023-03-21T07:38:00.500Z,34.39
2023-03-21T07:39:00.562Z,34.40
2023-03-21T07:40:00.681Z,34.37
2023-03-21T07:41:00.792Z,34.39
2023-03-21T07:42:00.844Z,34.37
2023-03-21T07:44:00.991Z,34.33
2023-03-21T07:45:01.050Z,34.32
2023-03-21T07:46:01.216Z,34.31
2023-03-21T07:47:01.225Z,34.31
2023-03-21T07:48:01.412Z,34.30
2023-03-21T07:49:01.435Z,34.29
2023-03-21T07:50:07.429Z,34.28
2023-03-21T07:51:01.558Z,34.29
2023-03-21T07:52:03.496Z,34.29
2023-03-21T07:53:01.766Z,34.31
2023-03-21T07:54:01.809Z,34.31
2023-03-21T07:55:01.897Z,34.28
2023-03-21T07:56:01.957Z,34.31
2023-03-21T07:57:02.054Z,34.30
2023-03-21T07:58:02.122Z,34.27
2023-03-21T07:59:02.233Z,34.27
2023-03-21T08:00:02.296Z,34.24
2023-03-21T08:01:02.455Z,34.23
2023-03-21T08:02:02.466Z,34.24
2023-03-21T08:03:02.609Z,34.24
2023-03-21T08:04:02.680Z,34.23
2023-03-21T08:05:02.704Z,34.22
2023-03-21T08:06:02.769Z,34.21
2023-03-21T08:07:02.850Z,34.22
2023-03-21T08:08:02.941Z,34.22
2023-03-21T08:09:03.053Z,34.20
2023-03-21T08:10:03.108Z,34.19
2023-03-21T08:11:03.144Z,34.20
2023-03-21T08:12:03.238Z,34.17
2023-03-21T08:13:03.380Z,34.18
2023-03-21T08:14:03.414Z,34.19
2023-03-21T08:15:03.485Z,34.18
2023-03-21T08:16:03.540Z,34.17
2023-03-21T08:17:03.699Z,34.17
2023-03-21T08:18:03.699Z,34.15
2023-03-21T08:19:03.784Z,34.16
2023-03-21T08:20:03.855Z,34.14
2023-03-21T08:21:10.277Z,34.14
2023-03-21T08:22:03.994Z,34.15
2023-03-21T08:23:04.082Z,34.15
2023-03-21T08:24:04.165Z,34.14
2023-03-21T08:25:04.235Z,34.15
2023-03-21T08:26:04.322Z,34.14
2023-03-21T08:27:04.420Z,34.15
2023-03-21T08:28:04.491Z,34.13
2023-03-21T08:29:04.553Z,34.12
2023-03-21T08:30:04.637Z,34.14
2023-03-21T08:31:04.763Z,34.08
2023-03-21T08:32:04.777Z,34.11
2023-03-21T08:33:04.848Z,34.10
2023-03-21T08:34:04.950Z,34.07
2023-03-21T08:35:05.023Z,34.10
2023-03-21T08:36:05.134Z,34.04
2023-03-21T08:37:05.236Z,34.03
2023-03-21T08:38:05.283Z,34.05
2023-03-21T08:39:05.429Z,34.05
2023-03-21T08:40:05.444Z,34.07
2023-03-21T08:41:05.522Z,34.07
2023-03-21T08:42:05.623Z,34.07
2023-03-21T08:43:05.685Z,34.07
2023-03-21T08:44:05.793Z,34.05
2023-03-21T08:45:05.849Z,34.06
2023-03-21T08:46:05.973Z,34.06
2023-03-21T08:47:05.987Z,34.06
2023-03-21T08:48:06.122Z,34.05
2023-03-21T08:49:06.150Z,34.07
2023-03-21T08:50:06.251Z,33.95
2023-03-21T08:51:06.337Z,34.04
2023-03-21T08:53:27.129Z,33.98
2023-03-21T08:54:28.272Z,34.22
2023-03-21T08:55:28.329Z,34.14
2023-03-21T08:56:28.389Z,34.13
2023-03-21T08:57:28.473Z,34.11
2023-03-21T08:58:28.575Z,34.03
2023-03-21T08:59:28.628Z,34.08
2023-03-21T09:00:28.704Z,34.07
2023-03-21T09:01:28.764Z,34.07
2023-03-21T09:02:28.853Z,34.07
2023-03-21T09:03:28.932Z,33.92
2023-03-21T09:04:29.079Z,34.02
2023-03-21T09:05:29.061Z,34.05
2023-03-21T09:06:29.134Z,34.05
2023-03-21T09:07:29.207Z,34.00
2023-03-21T09:08:29.288Z,34.04
2023-03-21T09:09:29.398Z,33.97
2023-03-21T09:10:29.439Z,34.00
2023-03-21T09:11:29.525Z,33.95
2023-03-21T09:12:29.617Z,33.99
2023-03-21T09:13:29.701Z,33.95
2023-03-21T09:14:29.817Z,33.88
2023-03-21T09:15:29.940Z,33.87
2023-03-21T09:16:30.042Z,33.96
2023-03-21T09:17:30.059Z,33.94
2023-03-21T09:18:30.134Z,33.89
2023-03-21T09:19:30.201Z,33.94
2023-03-21T09:20:30.313Z,33.92
2023-03-21T09:21:30.385Z,33.92
2023-03-21T09:22:30.473Z,33.88
2023-03-21T09:23:37.039Z,33.86
2023-03-21T09:24:30.654Z,33.96
2023-03-21T09:25:30.736Z,33.87
2023-03-21T09:26:30.806Z,33.87
2023-03-21T09:27:30.920Z,33.80
2023-03-21T09:28:30.946Z,33.82
2023-03-21T09:29:31.006Z,33.86
2023-03-21T09:30:31.114Z,33.77
2023-03-21T09:31:31.248Z,33.78
2023-03-21T09:32:31.256Z,33.75
2023-03-21T09:33:31.340Z,33.75
2023-03-21T09:34:31.421Z,33.75
2023-03-21T09:35:31.558Z,33.75
2023-03-21T09:36:31.650Z,33.75
2023-03-21T09:37:31.705Z,33.73
2023-03-21T09:38:31.783Z,33.73
2023-03-21T09:39:31.863Z,33.73
2023-03-21T09:40:31.986Z,33.73
2023-03-21T09:41:32.025Z,33.71
2023-03-21T09:42:32.109Z,33.74
2023-03-21T09:43:32.190Z,33.71
2023-03-21T09:44:32.293Z,33.72
2023-03-21T09:45:32.363Z,33.70
2023-03-21T09:46:32.469Z,33.73
2023-03-21T09:47:32.526Z,33.71
2023-03-21T09:48:32.590Z,33.70
2023-03-21T09:49:32.671Z,33.71
2023-03-21T09:50:32.773Z,33.73
2023-03-21T09:51:32.854Z,33.72
2023-03-21T09:52:32.935Z,33.74
2023-03-21T09:53:33.021Z,33.73
2023-03-21T09:54:39.102Z,33.73
2023-03-21T09:55:33.192Z,33.74
2023-03-21T09:56:33.294Z,33.74
2023-03-21T09:57:33.393Z,33.74
2023-03-21T09:58:33.468Z,33.74
2023-03-21T09:59:33.923Z,33.73
2023-03-21T10:00:33.665Z,33.73
2023-03-21T10:01:33.732Z,33.74
2023-03-21T10:02:33.836Z,33.72
2023-03-21T10:03:33.881Z,33.72
2023-03-21T10:04:34.071Z,33.70
2023-03-21T10:05:34.059Z,33.72
2023-03-21T10:06:34.133Z,33.69
2023-03-21T10:07:34.230Z,33.70
2023-03-21T10:08:34.317Z,33.69
2023-03-21T10:09:34.391Z,33.71
2023-03-21T10:10:34.500Z,33.71
2023-03-21T10:11:34.579Z,33.72
2023-03-21T10:12:34.785Z,33.72
2023-03-21T10:13:34.794Z,33.72
2023-03-21T10:14:34.853Z,33.71
2023-03-21T10:15:34.936Z,33.70
2023-03-21T10:16:35.119Z,33.69
2023-03-21T10:17:35.102Z,33.70
2023-03-21T10:18:35.167Z,33.71
2023-03-21T10:19:35.278Z,33.70
2023-03-21T10:20:35.354Z,33.68
2023-03-21T10:21:59.060Z,33.68
2023-03-21T10:22:35.507Z,33.70
2023-03-21T10:23:35.593Z,33.71
2023-03-21T10:24:35.723Z,33.70
2023-03-21T10:25:41.760Z,33.69
2023-03-21T10:26:35.855Z,33.71
2023-03-21T10:27:35.956Z,33.71
2023-03-21T10:28:50.027Z,33.71
2023-03-21T10:29:36.278Z,33.71
2023-03-21T10:30:36.221Z,33.71
2023-03-21T10:31:36.330Z,33.69
2023-03-21T10:32:36.488Z,33.68
2023-03-21T10:33:36.503Z,33.68
2023-03-21T10:34:36.578Z,33.66
2023-03-21T10:35:36.981Z,33.66
2023-03-21T10:36:36.731Z,33.66
2023-03-21T10:37:36.835Z,33.66
2023-03-21T10:38:36.869Z,33.65
2023-03-21T10:39:36.944Z,33.67
2023-03-21T10:40:37.025Z,33.65
2023-03-21T10:41:37.102Z,33.65
2023-03-21T10:42:37.190Z,33.65
2023-03-21T10:43:38.146Z,33.66
2023-03-21T10:44:37.359Z,33.65
2023-03-21T10:45:37.847Z,33.65
2023-03-21T10:46:37.724Z,33.65
2023-03-21T10:47:37.979Z,33.65
2023-03-21T10:48:37.906Z,33.64
2023-03-21T10:49:56.319Z,33.64
2023-03-21T10:50:37.888Z,33.64
2023-03-21T10:51:37.969Z,33.63
2023-03-21T10:52:38.013Z,33.63
2023-03-21T10:53:38.085Z,33.61
2023-03-21T10:54:38.189Z,33.62
2023-03-21T10:55:38.532Z,33.60
2023-03-21T10:56:44.800Z,33.60
2023-03-21T10:57:38.439Z,33.63
2023-03-21T10:58:38.521Z,33.62
2023-03-21T10:59:38.608Z,33.63
2023-03-21T11:00:38.717Z,33.59
2023-03-21T11:01:38.851Z,33.59
2023-03-21T11:02:39.448Z,33.59
2023-03-21T11:03:38.942Z,33.60
2023-03-21T11:04:39.040Z,33.58
2023-03-21T11:05:39.368Z,33.58
2023-03-21T11:06:39.210Z,33.60
2023-03-21T11:07:39.392Z,33.58
2023-03-21T11:08:39.349Z,33.58
2023-03-21T11:09:39.443Z,33.59
2023-03-21T11:10:39.552Z,33.58
2023-03-21T11:11:39.692Z,33.58
2023-03-21T11:12:39.742Z,33.57
2023-03-21T11:13:39.791Z,33.56
2023-03-21T11:14:39.895Z,33.56
2023-03-21T11:15:40.233Z,33.56
2023-03-21T11:16:41.075Z,33.56
2023-03-21T11:17:40.129Z,33.56
2023-03-21T11:18:40.197Z,33.55
2023-03-21T11:19:40.275Z,33.56
2023-03-21T11:20:40.354Z,33.55
2023-03-21T11:21:40.426Z,33.56
2023-03-21T11:22:40.488Z,33.56
2023-03-21T11:23:40.599Z,33.55
2023-03-21T11:24:40.646Z,33.55
2023-03-21T11:25:41.183Z,33.56
2023-03-21T11:26:40.836Z,33.55
2023-03-21T11:27:46.888Z,33.55
2023-03-21T11:28:41.015Z,33.57
2023-03-21T11:29:41.104Z,33.57
2023-03-21T11:30:41.234Z,33.56
2023-03-21T11:31:41.285Z,33.55
2023-03-21T11:32:41.343Z,33.57
2023-03-21T11:33:41.407Z,33.56
2023-03-21T11:34:41.531Z,33.56
2023-03-21T11:35:41.975Z,33.56
2023-03-21T11:36:41.743Z,33.55
2023-03-21T11:37:41.756Z,33.57
2023-03-21T11:38:41.846Z,33.56
2023-03-21T11:39:41.946Z,33.55
2023-03-21T11:40:42.032Z,33.54
2023-03-21T11:41:42.120Z,33.54
2023-03-21T11:42:42.210Z,33.55
2023-03-21T11:43:42.294Z,33.53
2023-03-21T11:44:42.358Z,33.53
2023-03-21T11:45:42.581Z,33.53
2023-03-21T11:46:42.524Z,33.53
2023-03-21T11:47:42.623Z,33.54
2023-03-21T11:48:42.680Z,33.54
2023-03-21T11:49:42.761Z,33.53
2023-03-21T11:50:42.880Z,33.52
2023-03-21T11:51:42.934Z,33.53
2023-03-21T11:52:42.992Z,33.52
2023-03-21T11:53:43.090Z,33.52
2023-03-21T11:54:43.173Z,33.51
2023-03-21T11:55:43.266Z,33.51
2023-03-21T11:56:43.337Z,33.49
2023-03-21T11:57:43.404Z,33.50
2023-03-21T11:58:49.484Z,33.48
2023-03-21T11:59:43.546Z,33.51
2023-03-21T12:00:43.624Z,33.52
2023-03-21T12:01:43.726Z,33.50
2023-03-21T12:02:43.796Z,33.50
2023-03-21T12:03:48.470Z,33.50
2023-03-21T12:04:43.998Z,33.52
2023-03-21T12:05:44.046Z,33.50
2023-03-21T12:06:44.102Z,33.50
2023-03-21T12:07:44.189Z,33.50
2023-03-21T12:08:44.276Z,33.49
2023-03-21T12:09:44.353Z,33.48
2023-03-21T12:10:44.421Z,33.47
2023-03-21T12:11:44.500Z,33.46
2023-03-21T12:12:44.592Z,33.46
2023-03-21T12:13:44.646Z,33.45
2023-03-21T12:14:44.739Z,33.45
2023-03-21T12:15:44.850Z,33.44
2023-03-21T12:16:44.890Z,33.44
2023-03-21T12:17:44.983Z,33.44
2023-03-21T12:18:45.085Z,33.43
2023-03-21T12:19:45.161Z,33.44
2023-03-21T12:20:45.273Z,33.44
2023-03-21T12:21:45.324Z,33.44
2023-03-21T12:22:45.400Z,33.45
2023-03-21T12:23:45.487Z,33.44
2023-03-21T12:24:45.571Z,33.44
2023-03-21T12:25:45.669Z,33.44
2023-03-21T12:26:45.745Z,33.44
2023-03-21T12:27:45.818Z,33.43
2023-03-21T12:28:45.904Z,33.44
2023-03-21T12:29:52.338Z,33.44
2023-03-21T12:30:46.117Z,33.44
2023-03-21T12:31:46.200Z,33.44
2023-03-21T12:32:46.268Z,33.46
2023-03-21T12:33:46.327Z,33.46
2023-03-21T12:34:46.414Z,33.44
2023-03-21T12:35:46.505Z,33.44
2023-03-21T12:36:46.584Z,33.44
2023-03-21T12:37:46.637Z,33.42
2023-03-21T12:38:46.733Z,33.43
2023-03-21T12:39:46.822Z,33.42
2023-03-21T12:40:46.928Z,33.42
2023-03-21T12:41:47.005Z,33.41
2023-03-21T12:42:47.096Z,33.42
2023-03-21T12:43:47.173Z,33.42
2023-03-21T12:44:47.282Z,33.43
2023-03-21T12:45:47.960Z,33.43
2023-03-21T12:46:47.493Z,33.42
2023-03-21T12:47:47.565Z,33.44
2023-03-21T12:48:47.592Z,33.44
2023-03-21T12:49:47.728Z,33.42
2023-03-21T12:50:47.756Z,33.42
2023-03-21T12:51:47.859Z,33.43
2023-03-21T12:52:47.918Z,33.42
2023-03-21T12:53:48.031Z,33.43
2023-03-21T12:54:48.077Z,33.44
2023-03-21T12:55:48.179Z,33.43
2023-03-21T12:56:48.283Z,33.43
2023-03-21T12:57:57.210Z,33.45
2023-03-21T12:58:48.474Z,33.44
2023-03-21T12:59:48.553Z,33.44